createdAt,value
2023-02-15T00:00:11.784Z,5.96
2023-02-15T00:02:59.121Z,5.98
2023-02-15T00:05:26.220Z,5.95
2023-02-15T00:07:53.460Z,5.98
2023-02-15T00:10:20.461Z,5.99
2023-02-15T00:12:47.670Z,5.90
2023-02-15T00:15:14.758Z,5.70
2023-02-15T00:17:42.047Z,5.86
2023-02-15T00:20:09.811Z,5.89
2023-02-15T00:22:37.184Z,5.92
2023-02-15T00:25:04.935Z,5.84
2023-02-15T00:27:32.324Z,5.87
2023-02-15T00:29:59.487Z,5.83
2023-02-15T00:32:28.445Z,5.78
2023-02-15T00:34:55.415Z,5.74
2023-02-15T00:37:22.842Z,5.78
2023-02-15T00:39:49.889Z,5.87
2023-02-15T00:42:17.175Z,5.89
2023-02-15T00:44:44.095Z,5.86
2023-02-15T00:47:11.373Z,5.86
2023-02-15T00:49:38.456Z,5.84
2023-02-15T00:52:05.691Z,5.75
2023-02-15T00:54:32.716Z,5.73
2023-02-15T00:56:59.959Z,5.72
2023-02-15T00:59:26.808Z,5.71
2023-02-15T01:01:54.029Z,5.66
2023-02-15T01:04:20.953Z,5.63
2023-02-15T01:06:48.198Z,5.57
2023-02-15T01:09:15.195Z,5.57
2023-02-15T01:11:42.392Z,5.54
2023-02-15T01:14:09.381Z,5.53
2023-02-15T01:16:36.557Z,5.49
2023-02-15T01:19:03.814Z,5.44
2023-02-15T01:21:31.190Z,5.47
2023-02-15T01:23:58.122Z,5.45
2023-02-15T01:26:25.324Z,5.40
2023-02-15T01:28:52.249Z,5.44
2023-02-15T01:31:22.045Z,5.41
2023-02-15T01:33:49.496Z,5.35
2023-02-15T01:36:18.404Z,5.35
2023-02-15T01:38:45.974Z,5.30
2023-02-15T01:41:27.325Z,5.30
2023-02-15T01:44:01.940Z,5.37
2023-02-15T01:46:41.604Z,5.40
2023-02-15T01:49:24.832Z,5.39
2023-02-15T01:51:53.907Z,5.37
2023-02-15T01:54:34.992Z,5.44
2023-02-15T01:57:09.795Z,5.47
2023-02-15T01:59:40.649Z,5.45
2023-02-15T02:02:12.975Z,5.36
2023-02-15T02:04:50.584Z,5.32
2023-02-15T02:07:23.556Z,5.28
2023-02-15T02:09:51.422Z,5.02
2023-02-15T02:12:22.845Z,5.11
2023-02-15T02:14:52.254Z,5.10
2023-02-15T02:18:19.170Z,5.05
2023-02-15T02:21:08.411Z,5.10
2023-02-15T02:23:40.547Z,5.17
2023-02-15T02:26:58.094Z,5.18
2023-02-15T02:29:55.977Z,5.19
2023-02-15T02:32:50.877Z,5.15
2023-02-15T02:35:54.252Z,5.09
2023-02-15T02:38:49.561Z,5.07
2023-02-15T02:41:42.696Z,5.12
2023-02-15T02:44:25.882Z,5.12
2023-02-15T02:47:27.804Z,5.09
2023-02-15T02:50:10.204Z,5.03
2023-02-15T02:52:41.992Z,5.09
2023-02-15T02:55:20.826Z,5.10
2023-02-15T02:58:03.189Z,5.11
2023-02-15T03:00:46.356Z,5.09
2023-02-15T03:03:30.001Z,5.02
2023-02-15T03:06:04.793Z,4.95
2023-02-15T03:08:39.104Z,4.82
2023-02-15T03:11:06.446Z,4.78
2023-02-15T03:13:35.043Z,4.72
2023-02-15T03:16:24.610Z,4.68
2023-02-15T03:18:58.975Z,4.60
2023-02-15T03:21:39.531Z,4.58
2023-02-15T03:24:23.385Z,4.57
2023-02-15T03:26:54.093Z,4.65
2023-02-15T03:29:28.554Z,4.72
2023-02-15T03:32:31.179Z,4.75
2023-02-15T03:35:12.434Z,4.77
2023-02-15T03:38:10.823Z,4.81
2023-02-15T03:41:12.851Z,4.75
2023-02-15T03:44:48.121Z,4.57
2023-02-15T03:48:10.961Z,4.61
2023-02-15T03:51:01.955Z,4.59
2023-02-15T03:53:29.447Z,4.29
2023-02-15T03:55:56.945Z,4.36
2023-02-15T03:58:42.804Z,4.48
2023-02-15T04:01:47.879Z,4.52
2023-02-15T04:04:25.489Z,4.42
2023-02-15T04:06:52.712Z,4.36
2023-02-15T04:09:38.394Z,4.39
2023-02-15T04:12:05.628Z,4.30
2023-02-15T04:14:51.698Z,4.31
2023-02-15T04:17:18.734Z,4.49
2023-02-15T04:20:04.407Z,4.55
2023-02-15T04:22:49.803Z,4.57
2023-02-15T04:25:17.304Z,4.46
2023-02-15T04:27:54.046Z,4.28
2023-02-15T04:30:26.087Z,4.22
2023-02-15T04:32:57.536Z,4.17
2023-02-15T04:35:24.957Z,4.07
2023-02-15T04:37:52.116Z,4.01
2023-02-15T04:40:19.880Z,4.08
2023-02-15T04:42:50.253Z,4.20
2023-02-15T04:45:18.612Z,4.30
2023-02-15T04:47:45.781Z,4.31
2023-02-15T04:50:13.278Z,4.33
2023-02-15T04:52:40.373Z,4.26
2023-02-15T04:55:08.472Z,4.27
2023-02-15T04:57:35.606Z,4.18
2023-02-15T05:00:03.159Z,4.20
2023-02-15T05:02:33.769Z,4.28
2023-02-15T05:05:14.085Z,4.20
2023-02-15T05:07:41.075Z,4.25
2023-02-15T05:10:09.329Z,4.25
2023-02-15T05:12:36.855Z,4.26
2023-02-15T05:15:04.757Z,4.22
2023-02-15T05:17:31.619Z,4.13
2023-02-15T05:19:58.790Z,4.13
2023-02-15T05:22:26.170Z,4.06
2023-02-15T05:25:12.026Z,3.96
2023-02-15T05:27:57.679Z,4.02
2023-02-15T05:30:25.048Z,3.97
2023-02-15T05:32:52.236Z,3.96
2023-02-15T05:35:19.853Z,3.80
2023-02-15T05:37:46.933Z,3.73
2023-02-15T05:40:14.261Z,3.76
2023-02-15T05:42:41.322Z,3.91
2023-02-15T05:45:08.756Z,3.70
2023-02-15T05:47:35.681Z,3.63
2023-02-15T05:50:02.956Z,3.72
2023-02-15T05:52:29.952Z,3.76
2023-02-15T05:54:57.259Z,3.69
2023-02-15T05:57:24.206Z,3.74
2023-02-15T05:59:51.774Z,3.71
2023-02-15T06:02:19.169Z,3.71
2023-02-15T06:04:46.494Z,3.75
2023-02-15T06:07:13.625Z,3.88
2023-02-15T06:09:40.877Z,3.95
2023-02-15T06:12:08.007Z,3.82
2023-02-15T06:14:35.236Z,3.83
2023-02-15T06:17:02.374Z,3.83
2023-02-15T06:19:29.590Z,3.76
2023-02-15T06:21:56.640Z,3.63
2023-02-15T06:24:24.093Z,3.67
2023-02-15T06:26:51.089Z,3.66
2023-02-15T06:29:18.305Z,3.54
2023-02-15T06:31:55.470Z,3.52
2023-02-15T06:34:22.848Z,3.56
2023-02-15T06:36:50.179Z,3.60
2023-02-15T06:39:17.770Z,3.63
2023-02-15T06:41:44.694Z,3.65
2023-02-15T06:44:11.953Z,3.53
2023-02-15T06:46:38.869Z,3.66
2023-02-15T06:49:06.393Z,3.64
2023-02-15T06:51:35.205Z,3.59
2023-02-15T06:54:02.491Z,3.49
2023-02-15T06:56:29.440Z,3.62
2023-02-15T06:58:56.849Z,3.72
2023-02-15T07:01:24.136Z,3.74
2023-02-15T07:03:51.589Z,3.66
2023-02-15T07:06:18.729Z,3.62
2023-02-15T07:08:46.043Z,3.61
2023-02-15T07:11:32.140Z,3.61
2023-02-15T07:13:59.550Z,3.26
2023-02-15T07:16:27.096Z,3.31
2023-02-15T07:18:54.611Z,3.45
2023-02-15T07:21:21.870Z,3.33
2023-02-15T07:23:50.017Z,3.34
2023-02-15T07:26:17.028Z,3.26
2023-02-15T07:28:44.721Z,3.21
2023-02-15T07:31:11.781Z,3.34
2023-02-15T07:33:39.006Z,3.48
2023-02-15T07:36:07.019Z,3.49
2023-02-15T07:38:39.345Z,3.33
2023-02-15T07:41:15.647Z,3.32
2023-02-15T07:43:46.069Z,3.39
2023-02-15T07:46:17.769Z,3.46
2023-02-15T07:48:45.827Z,3.44
2023-02-15T07:51:15.490Z,3.47
2023-02-15T07:53:43.660Z,3.49
2023-02-15T07:56:13.676Z,3.32
2023-02-15T07:58:52.958Z,3.31
2023-02-15T08:01:32.245Z,3.28
2023-02-15T08:04:00.210Z,3.28
2023-02-15T08:06:30.731Z,3.28
2023-02-15T08:08:58.268Z,3.35
2023-02-15T08:11:38.803Z,3.42
2023-02-15T08:14:13.906Z,3.45
2023-02-15T08:16:43.403Z,3.42
2023-02-15T08:19:28.688Z,3.43
2023-02-15T08:22:03.049Z,3.40
2023-02-15T08:24:33.877Z,3.26
2023-02-15T08:27:06.060Z,3.47
2023-02-15T08:29:35.756Z,3.61
2023-02-15T08:32:07.432Z,3.60
2023-02-15T08:34:40.590Z,3.61
2023-02-15T08:37:08.241Z,3.50
2023-02-15T08:39:35.958Z,3.38
2023-02-15T08:42:03.175Z,3.41
2023-02-15T08:44:30.841Z,3.47
2023-02-15T08:47:03.763Z,3.41
2023-02-15T08:49:31.310Z,3.58
2023-02-15T08:51:58.643Z,3.44
2023-02-15T08:54:26.111Z,3.44
2023-02-15T08:56:53.155Z,3.45
2023-02-15T08:59:24.249Z,3.34
2023-02-15T09:01:53.303Z,3.40
2023-02-15T09:04:23.639Z,3.40
2023-02-15T09:06:51.734Z,3.20
2023-02-15T09:09:20.447Z,3.30
2023-02-15T09:11:55.836Z,3.26
2023-02-15T09:14:28.031Z,3.31
2023-02-15T09:16:56.275Z,3.37
2023-02-15T09:19:25.503Z,3.59
2023-02-15T09:21:52.722Z,3.66
2023-02-15T09:24:20.319Z,3.73
2023-02-15T09:26:49.685Z,3.83
2023-02-15T09:29:18.862Z,3.88
2023-02-15T09:31:52.004Z,3.88
2023-02-15T09:34:22.542Z,3.66
2023-02-15T09:36:51.330Z,3.76
2023-02-15T09:39:25.829Z,3.85
2023-02-15T09:42:17.310Z,3.85
2023-02-15T09:45:22.827Z,3.79
2023-02-15T09:48:28.673Z,3.84
2023-02-15T09:51:22.777Z,4.01
2023-02-15T09:54:13.416Z,4.01
2023-02-15T09:56:49.757Z,4.08
2023-02-15T09:59:55.178Z,4.04
2023-02-15T10:02:53.866Z,4.05
2023-02-15T10:06:05.742Z,4.07
2023-02-15T10:09:03.862Z,4.08
2023-02-15T10:11:56.122Z,3.95
2023-02-15T10:15:01.887Z,4.03
2023-02-15T10:17:55.339Z,4.06
2023-02-15T10:21:23.220Z,3.88
2023-02-15T10:24:21.769Z,4.00
2023-02-15T10:26:50.257Z,4.01
2023-02-15T10:29:38.944Z,4.08
2023-02-15T10:32:25.934Z,4.05
2023-02-15T10:35:04.229Z,4.02
2023-02-15T10:37:48.901Z,4.02
2023-02-15T10:40:57.559Z,4.07
2023-02-15T10:44:07.026Z,4.13
2023-02-15T10:47:12.613Z,4.17
2023-02-15T10:50:31.481Z,4.18
2023-02-15T10:53:32.173Z,3.96
2023-02-15T10:56:19.697Z,3.95
2023-02-15T10:59:25.246Z,3.81
2023-02-15T11:03:22.013Z,3.86
2023-02-15T11:06:11.367Z,4.06
2023-02-15T11:08:47.826Z,4.08
2023-02-15T11:11:30.694Z,4.24
2023-02-15T11:14:05.038Z,4.26
2023-02-15T11:16:42.780Z,4.11
2023-02-15T11:19:35.578Z,3.77
2023-02-15T11:22:07.757Z,3.64
2023-02-15T11:24:44.511Z,3.62
2023-02-15T11:27:22.135Z,3.94
2023-02-15T11:29:59.252Z,4.09
2023-02-15T11:32:41.240Z,4.20
2023-02-15T11:35:11.203Z,4.15
2023-02-15T11:37:47.617Z,4.18
2023-02-15T11:40:52.963Z,4.35
2023-02-15T11:43:54.321Z,4.48
2023-02-15T11:46:22.736Z,4.63
2023-02-15T11:48:50.275Z,4.71
2023-02-15T11:51:23.850Z,4.74
2023-02-15T11:53:53.243Z,4.53
2023-02-15T11:56:25.608Z,4.01
2023-02-15T11:59:04.766Z,4.24
2023-02-15T12:01:43.493Z,4.45
2023-02-15T12:04:35.780Z,4.59
2023-02-15T12:07:26.657Z,4.56
2023-02-15T12:10:18.184Z,4.40
2023-02-15T12:12:45.628Z,4.34
2023-02-15T12:15:15.136Z,4.28
2023-02-15T12:17:56.138Z,4.47
2023-02-15T12:20:33.545Z,4.42
2023-02-15T12:23:12.831Z,4.45
2023-02-15T12:26:00.360Z,4.57
2023-02-15T12:28:45.542Z,4.68
2023-02-15T12:31:28.840Z,4.77
2023-02-15T12:34:01.071Z,4.74
2023-02-15T12:36:48.023Z,4.82
2023-02-15T12:39:20.625Z,4.83
2023-02-15T12:42:01.644Z,4.85
2023-02-15T12:44:38.223Z,4.78
2023-02-15T12:47:17.054Z,4.32
2023-02-15T12:49:48.066Z,4.55
2023-02-15T12:52:21.418Z,4.59
2023-02-15T12:54:49.633Z,4.68
2023-02-15T12:57:33.811Z,4.66
2023-02-15T13:00:32.686Z,4.70
2023-02-15T13:03:01.572Z,4.85
2023-02-15T13:05:47.538Z,4.96
2023-02-15T13:08:32.164Z,5.11
2023-02-15T13:11:12.132Z,5.17
2023-02-15T13:13:59.952Z,5.12
2023-02-15T13:16:41.132Z,5.12
2023-02-15T13:19:43.448Z,5.24
2023-02-15T13:22:44.620Z,5.31
2023-02-15T13:25:21.057Z,5.24
2023-02-15T13:27:56.876Z,5.32
2023-02-15T13:30:33.322Z,5.30
2023-02-15T13:33:10.708Z,5.27
2023-02-15T13:36:27.024Z,5.30
2023-02-15T13:39:32.709Z,5.31
2023-02-15T13:42:24.296Z,5.22
2023-02-15T13:45:31.799Z,5.20
2023-02-15T13:48:55.946Z,5.00
2023-02-15T13:51:28.141Z,5.11
2023-02-15T13:54:27.495Z,5.15
2023-02-15T13:57:19.514Z,5.13
2023-02-15T14:00:12.627Z,5.21
2023-02-15T14:02:40.148Z,5.27
2023-02-15T14:05:39.669Z,5.25
2023-02-15T14:08:38.850Z,5.20
2023-02-15T14:11:26.279Z,5.20
2023-02-15T14:14:06.750Z,5.17
2023-02-15T14:17:21.797Z,5.22
2023-02-15T14:19:58.554Z,5.30
2023-02-15T14:23:08.826Z,5.41
2023-02-15T14:25:59.101Z,5.52
2023-02-15T14:28:38.616Z,5.52
2023-02-15T14:31:12.543Z,5.51
2023-02-15T14:33:48.468Z,5.41
2023-02-15T14:36:20.736Z,5.26
2023-02-15T14:38:53.612Z,5.19
2023-02-15T14:41:44.945Z,5.16
2023-02-15T14:44:21.308Z,5.01
2023-02-15T14:47:11.586Z,4.93
2023-02-15T14:49:41.134Z,4.98
2023-02-15T14:52:12.720Z,4.98
2023-02-15T14:54:39.689Z,5.09
2023-02-15T14:57:09.327Z,5.09
2023-02-15T14:59:59.407Z,5.14
2023-02-15T15:03:02.625Z,5.20
2023-02-15T15:05:50.115Z,5.22
2023-02-15T15:08:42.261Z,5.21
2023-02-15T15:11:42.872Z,5.20
2023-02-15T15:14:35.114Z,5.22
2023-02-15T15:17:05.528Z,5.14
2023-02-15T15:19:51.786Z,5.13
2023-02-15T15:22:29.933Z,5.15
2023-02-15T15:25:46.788Z,5.19
2023-02-15T15:28:35.617Z,5.21
2023-02-15T15:31:28.214Z,5.21
2023-02-15T15:34:33.582Z,5.23
2023-02-15T15:37:49.678Z,5.18
2023-02-15T15:40:40.594Z,5.12
2023-02-15T15:43:39.511Z,5.02
2023-02-15T15:46:48.566Z,5.02
2023-02-15T15:49:25.747Z,5.03
2023-02-15T15:51:54.648Z,5.07
2023-02-15T15:54:27.153Z,5.05
2023-02-15T15:57:03.265Z,5.04
2023-02-15T15:59:35.727Z,5.12
2023-02-15T16:02:17.025Z,5.12
2023-02-15T16:04:47.217Z,5.08
2023-02-15T16:07:27.567Z,5.01
2023-02-15T16:10:28.061Z,4.98
2023-02-15T16:12:56.691Z,5.04
2023-02-15T16:15:37.250Z,5.07
2023-02-15T16:18:06.158Z,5.06
2023-02-15T16:20:37.983Z,5.02
2023-02-15T16:23:35.987Z,4.91
2023-02-15T16:26:22.067Z,4.76
2023-02-15T16:28:54.133Z,4.78
2023-02-15T16:31:23.537Z,4.75
2023-02-15T16:33:56.433Z,4.63
2023-02-15T16:36:29.839Z,4.63
2023-02-15T16:38:56.858Z,4.62
2023-02-15T16:41:30.600Z,4.58
2023-02-15T16:44:05.607Z,4.55
2023-02-15T16:46:41.405Z,4.51
2023-02-15T16:49:29.334Z,4.54
2023-02-15T16:52:07.046Z,4.50
2023-02-15T16:54:36.769Z,4.48
2023-02-15T16:57:04.389Z,4.44
2023-02-15T16:59:48.240Z,4.42
2023-02-15T17:02:43.464Z,4.44
2023-02-15T17:05:13.180Z,4.42
2023-02-15T17:08:16.494Z,4.40
2023-02-15T17:11:07.648Z,4.33
2023-02-15T17:14:09.748Z,4.35
2023-02-15T17:16:50.029Z,4.28
2023-02-15T17:19:22.981Z,4.27
2023-02-15T17:21:58.136Z,4.26
2023-02-15T17:24:46.254Z,4.19
2023-02-15T17:27:23.677Z,4.19
2023-02-15T17:30:13.686Z,4.17
2023-02-15T17:32:56.754Z,4.11
2023-02-15T17:35:28.950Z,4.18
2023-02-15T17:38:19.197Z,4.16
2023-02-15T17:40:46.916Z,4.17
2023-02-15T17:43:14.224Z,4.07
2023-02-15T17:45:50.932Z,4.05
2023-02-15T17:48:35.582Z,4.01
2023-02-15T17:51:07.575Z,4.05
2023-02-15T17:53:35.231Z,4.04
2023-02-15T17:56:10.537Z,3.92
2023-02-15T17:58:38.461Z,3.95
2023-02-15T18:01:34.362Z,3.88
2023-02-15T18:04:20.465Z,3.87
2023-02-15T18:07:07.124Z,3.89
2023-02-15T18:09:52.934Z,3.83
2023-02-15T18:12:27.992Z,3.79
2023-02-15T18:14:57.230Z,3.77
2023-02-15T18:17:34.059Z,3.75
2023-02-15T18:20:08.242Z,3.73
2023-02-15T18:22:36.757Z,3.78
2023-02-15T18:25:07.543Z,3.80
2023-02-15T18:27:36.859Z,3.75
2023-02-15T18:30:04.563Z,3.73
2023-02-15T18:32:36.799Z,3.80
2023-02-15T18:35:05.397Z,3.80
2023-02-15T18:37:34.758Z,3.79
2023-02-15T18:40:04.353Z,3.79
2023-02-15T18:42:35.518Z,3.72
2023-02-15T18:45:22.171Z,3.72
2023-02-15T18:47:50.176Z,3.70
2023-02-15T18:50:24.131Z,3.58
2023-02-15T18:52:52.562Z,3.49
2023-02-15T18:55:24.224Z,3.49
2023-02-15T18:57:55.599Z,3.50
2023-02-15T19:00:30.175Z,3.53
2023-02-15T19:02:59.113Z,3.57
2023-02-15T19:05:29.635Z,3.54
2023-02-15T19:07:59.730Z,3.54
2023-02-15T19:10:30.584Z,3.56
2023-02-15T19:13:00.357Z,3.45
2023-02-15T19:15:30.930Z,3.43
2023-02-15T19:17:58.936Z,3.50
2023-02-15T19:20:33.566Z,3.49
2023-02-15T19:23:02.290Z,3.45
2023-02-15T19:25:34.414Z,3.42
2023-02-15T19:28:12.530Z,3.43
2023-02-15T19:30:39.748Z,3.40
2023-02-15T19:33:14.133Z,3.30
2023-02-15T19:35:41.684Z,3.32
2023-02-15T19:38:19.384Z,3.34
2023-02-15T19:40:47.116Z,3.38
2023-02-15T19:43:28.809Z,3.41
2023-02-15T19:45:56.646Z,3.35
2023-02-15T19:48:24.930Z,3.33
2023-02-15T19:50:53.532Z,3.29
2023-02-15T19:53:28.504Z,3.22
2023-02-15T19:55:55.788Z,3.16
2023-02-15T19:58:23.834Z,3.12
2023-02-15T20:00:52.489Z,3.17
2023-02-15T20:03:20.736Z,3.17
2023-02-15T20:05:48.178Z,3.13
2023-02-15T20:08:23.018Z,3.11
2023-02-15T20:10:50.466Z,3.07
2023-02-15T20:13:20.726Z,3.06
2023-02-15T20:15:49.664Z,3.06
2023-02-15T20:18:19.762Z,3.07
2023-02-15T20:20:54.818Z,3.05
2023-02-15T20:23:35.393Z,3.04
2023-02-15T20:26:18.642Z,3.03
2023-02-15T20:28:47.110Z,2.95
2023-02-15T20:31:20.627Z,2.94
2023-02-15T20:33:49.715Z,2.88
2023-02-15T20:36:22.534Z,2.89
2023-02-15T20:38:50.695Z,2.94
2023-02-15T20:41:37.293Z,2.91
2023-02-15T20:44:22.393Z,2.90
2023-02-15T20:46:53.851Z,2.89
2023-02-15T20:49:24.369Z,2.89
2023-02-15T20:51:53.692Z,2.93
2023-02-15T20:54:29.604Z,2.89
2023-02-15T20:56:57.333Z,2.88
2023-02-15T20:59:32.161Z,2.92
2023-02-15T21:02:19.156Z,2.94
2023-02-15T21:04:47.385Z,3.02
2023-02-15T21:07:21.234Z,3.07
2023-02-15T21:09:49.716Z,3.04
2023-02-15T21:12:19.884Z,3.06
2023-02-15T21:14:47.481Z,3.07
2023-02-15T21:17:16.677Z,3.13
2023-02-15T21:19:44.773Z,3.15
2023-02-15T21:22:16.717Z,3.12
2023-02-15T21:24:55.103Z,3.15
2023-02-15T21:27:22.379Z,3.08
2023-02-15T21:29:50.151Z,3.14
2023-02-15T21:32:18.863Z,3.19
2023-02-15T21:34:47.313Z,3.26
2023-02-15T21:37:32.758Z,3.23
2023-02-15T21:40:00.438Z,3.23
2023-02-15T21:42:47.460Z,3.25
2023-02-15T21:45:36.422Z,3.24
2023-02-15T21:48:04.178Z,3.26
2023-02-15T21:50:50.582Z,3.27
2023-02-15T21:53:30.643Z,3.24
2023-02-15T21:56:02.173Z,3.25
2023-02-15T21:58:33.792Z,3.25
2023-02-15T22:01:03.107Z,3.24
2023-02-15T22:03:34.938Z,3.22
2023-02-15T22:06:03.804Z,3.20
2023-02-15T22:08:35.881Z,3.16
2023-02-15T22:11:03.499Z,3.10
2023-02-15T22:13:34.140Z,3.06
2023-02-15T22:16:03.295Z,3.07
2023-02-15T22:18:34.310Z,3.06
2023-02-15T22:21:04.428Z,3.05
2023-02-15T22:23:31.683Z,3.02
2023-02-15T22:26:06.069Z,3.04
2023-02-15T22:28:43.298Z,3.04
2023-02-15T22:31:18.860Z,2.90
2023-02-15T22:33:46.468Z,2.93
2023-02-15T22:36:32.068Z,2.89
2023-02-15T22:38:59.219Z,2.91
2023-02-15T22:41:31.417Z,2.92
2023-02-15T22:43:58.627Z,2.91
2023-02-15T22:46:26.852Z,2.89
2023-02-15T22:48:53.975Z,2.88
2023-02-15T22:51:24.343Z,2.79
2023-02-15T22:53:53.305Z,2.76
2023-02-15T22:56:32.397Z,2.76
2023-02-15T22:59:09.054Z,2.78
2023-02-15T23:01:38.609Z,2.73
2023-02-15T23:04:05.997Z,2.72
2023-02-15T23:06:34.535Z,2.68
2023-02-15T23:09:01.882Z,2.60
2023-02-15T23:11:29.522Z,2.51
2023-02-15T23:13:56.689Z,2.53
2023-02-15T23:16:23.940Z,2.50
2023-02-15T23:18:51.246Z,2.45
2023-02-15T23:21:22.770Z,2.42
2023-02-15T23:23:55.855Z,2.34
2023-02-15T23:26:31.686Z,2.30
2023-02-15T23:29:01.700Z,2.34
2023-02-15T23:31:33.393Z,2.38
2023-02-15T23:34:07.701Z,2.41
2023-02-15T23:36:39.488Z,2.46
2023-02-15T23:39:39.600Z,2.45
2023-02-15T23:42:14.542Z,2.36
2023-02-15T23:44:45.063Z,2.28
2023-02-15T23:47:53.854Z,2.13
2023-02-15T23:50:30.264Z,2.00
2023-02-15T23:52:58.631Z,2.01
2023-02-15T23:55:36.128Z,2.01
2023-02-15T23:58:07.227Z,1.91
